createdAt,value
2019-05-14T00:02:12.189Z,0.72
2019-05-14T00:04:42.366Z,0.68
2019-05-14T00:07:11.819Z,0.57
2019-05-14T00:09:41.388Z,0.70
2019-05-14T00:12:11.366Z,0.57
2019-05-14T00:14:43.378Z,0.42
2019-05-14T00:17:11.283Z,0.70
2019-05-14T00:19:41.586Z,0.70
2019-05-14T00:22:11.628Z,0.70
2019-05-14T00:24:41.577Z,0.55
2019-05-14T00:27:11.450Z,0.55
2019-05-14T00:29:41.814Z,0.50
2019-05-14T00:32:11.413Z,0.60
2019-05-14T00:34:42.222Z,0.60
2019-05-14T00:37:11.462Z,0.50
2019-05-14T00:39:41.617Z,0.50
2019-05-14T00:42:12.541Z,0.53
2019-05-14T00:44:53.655Z,0.60
2019-05-14T00:47:11.638Z,0.60
2019-05-14T00:49:42.399Z,0.55
2019-05-14T00:52:11.739Z,0.50
2019-05-14T00:54:41.628Z,0.62
2019-05-14T00:57:11.945Z,0.60
2019-05-14T00:59:41.736Z,0.68
2019-05-14T01:02:11.410Z,0.70
2019-05-14T01:04:42.522Z,0.60
2019-05-14T01:07:11.931Z,0.72
2019-05-14T01:09:42.190Z,0.70
2019-05-14T01:12:12.116Z,0.60
2019-05-14T01:14:42.393Z,0.50
2019-05-14T01:17:11.455Z,0.53
2019-05-14T01:19:42.501Z,0.65
2019-05-14T01:22:12.440Z,0.50
2019-05-14T01:24:41.720Z,0.50
2019-05-14T01:27:12.448Z,0.50
2019-05-14T01:29:42.521Z,0.72
2019-05-14T01:32:11.650Z,0.70
2019-05-14T01:34:41.963Z,0.50
2019-05-14T01:37:11.691Z,0.50
2019-05-14T01:39:41.724Z,0.50
2019-05-14T01:42:12.461Z,0.70
2019-05-14T01:44:41.530Z,0.40
2019-05-14T01:47:12.401Z,0.70
2019-05-14T01:49:42.832Z,0.70
2019-05-14T01:52:11.437Z,0.90
2019-05-14T01:54:42.377Z,0.70
2019-05-14T01:57:11.585Z,0.70
2019-05-14T01:59:42.573Z,0.60
2019-05-14T02:02:11.668Z,0.40
2019-05-14T02:04:42.721Z,0.62
2019-05-14T02:07:11.691Z,0.50
2019-05-14T02:09:41.987Z,0.65
2019-05-14T02:12:11.695Z,0.50
2019-05-14T02:14:42.492Z,0.78
2019-05-14T02:17:12.355Z,0.60
2019-05-14T02:19:42.619Z,0.50
2019-05-14T02:22:11.531Z,0.80
2019-05-14T02:24:41.685Z,0.60
2019-05-14T02:27:12.367Z,0.60
2019-05-14T02:29:41.681Z,0.60
2019-05-14T02:32:10.969Z,0.70
2019-05-14T02:34:40.454Z,0.60
2019-05-14T02:37:09.666Z,0.50
2019-05-14T02:39:41.008Z,0.50
2019-05-14T02:42:09.744Z,0.50
2019-05-14T02:44:40.709Z,0.70
2019-05-14T02:47:09.793Z,0.47
2019-05-14T02:49:39.815Z,0.50
2019-05-14T02:52:10.072Z,0.70
2019-05-14T02:54:40.361Z,0.50
2019-05-14T02:57:10.550Z,0.50
2019-05-14T02:59:39.970Z,0.60
2019-05-14T03:02:09.953Z,0.30
2019-05-14T03:04:39.777Z,0.55
2019-05-14T03:07:10.674Z,0.60
2019-05-14T03:09:40.240Z,0.50
2019-05-14T03:12:09.987Z,0.50
2019-05-14T03:14:39.775Z,0.40
2019-05-14T03:17:10.462Z,0.55
2019-05-14T03:19:40.824Z,0.40
2019-05-14T03:22:10.286Z,0.50
2019-05-14T03:24:39.902Z,0.50
2019-05-14T03:27:09.918Z,0.40
2019-05-14T03:29:39.827Z,0.60
2019-05-14T03:32:12.649Z,0.60
2019-05-14T03:34:42.834Z,0.60
2019-05-14T03:37:12.868Z,0.45
2019-05-14T03:39:40.215Z,0.60
2019-05-14T03:42:09.731Z,0.50
2019-05-14T03:44:39.947Z,0.50
2019-05-14T03:47:10.075Z,0.70
2019-05-14T03:49:39.886Z,0.40
2019-05-14T03:52:09.693Z,0.50
2019-05-14T03:54:40.742Z,0.60
2019-05-14T03:57:09.639Z,0.50
2019-05-14T03:59:40.296Z,0.50
2019-05-14T04:02:09.837Z,0.40
2019-05-14T04:04:39.497Z,0.55
2019-05-14T04:07:09.661Z,0.50
2019-05-14T04:09:39.958Z,0.50
2019-05-14T04:12:09.943Z,0.50
2019-05-14T04:14:39.889Z,0.70
2019-05-14T04:17:14.495Z,0.57
2019-05-14T04:19:39.645Z,0.50
2019-05-14T04:22:10.104Z,0.50
2019-05-14T04:24:41.331Z,0.57
2019-05-14T04:27:13.040Z,0.65
2019-05-14T04:29:41.107Z,0.50
2019-05-14T04:32:10.378Z,0.60
2019-05-14T04:34:40.044Z,0.57
2019-05-14T04:37:09.679Z,0.47
2019-05-14T04:39:39.650Z,0.57
2019-05-14T04:42:09.751Z,0.40
2019-05-14T04:44:40.471Z,0.50
2019-05-14T04:47:25.195Z,0.60
2019-05-14T04:49:40.163Z,0.60
2019-05-14T04:52:09.982Z,0.40
2019-05-14T04:54:39.551Z,0.47
2019-05-14T04:57:10.235Z,0.50
2019-05-14T04:59:39.857Z,0.40
2019-05-14T05:02:09.647Z,0.68
2019-05-14T05:04:41.229Z,0.80
2019-05-14T05:07:10.127Z,0.50
2019-05-14T05:09:39.782Z,0.60
2019-05-14T05:12:09.546Z,0.55
2019-05-14T05:14:39.119Z,0.62
2019-05-14T05:17:09.252Z,0.50
2019-05-14T05:19:39.383Z,0.50
2019-05-14T05:22:08.519Z,0.75
2019-05-14T05:24:38.109Z,0.50
2019-05-14T05:27:09.340Z,0.70
2019-05-14T05:29:39.271Z,0.42
2019-05-14T05:32:08.613Z,0.40
2019-05-14T05:34:38.879Z,0.60
2019-05-14T05:37:08.610Z,0.50
2019-05-14T05:39:38.692Z,0.62
2019-05-14T05:42:09.177Z,0.53
2019-05-14T05:44:39.367Z,0.70
2019-05-14T05:47:09.220Z,0.50
2019-05-14T05:49:38.307Z,0.50
2019-05-14T05:52:08.630Z,0.50
2019-05-14T05:54:38.488Z,0.40
2019-05-14T05:57:09.290Z,0.57
2019-05-14T05:59:39.300Z,0.50
2019-05-14T06:02:09.406Z,0.60
2019-05-14T06:04:39.297Z,0.65
2019-05-14T06:07:08.826Z,0.57
2019-05-14T06:09:38.449Z,0.60
2019-05-14T06:12:08.652Z,0.45
2019-05-14T06:14:38.259Z,0.60
2019-05-14T06:17:08.498Z,0.50
2019-05-14T06:19:38.148Z,0.70
2019-05-14T06:22:09.550Z,0.50
2019-05-14T06:24:39.035Z,0.50
2019-05-14T06:27:09.355Z,0.60
2019-05-14T06:29:38.396Z,0.60
2019-05-14T06:32:09.268Z,0.60
2019-05-14T06:34:38.216Z,0.57
2019-05-14T06:37:08.397Z,0.55
2019-05-14T06:39:39.167Z,0.50
2019-05-14T06:42:08.806Z,0.60
2019-05-14T06:44:38.578Z,0.60
2019-05-14T06:47:09.302Z,0.47
2019-05-14T06:49:38.495Z,0.60
2019-05-14T06:52:08.673Z,0.50
2019-05-14T06:54:38.787Z,0.50
2019-05-14T06:57:08.907Z,0.70
2019-05-14T06:59:38.229Z,0.70
2019-05-14T07:02:08.705Z,0.50
2019-05-14T07:04:39.213Z,0.53
2019-05-14T07:07:08.442Z,0.68
2019-05-14T07:09:38.426Z,0.70
2019-05-14T07:12:09.073Z,0.85
2019-05-14T07:14:38.844Z,0.90
2019-05-14T07:17:09.062Z,1.42
2019-05-14T07:19:38.578Z,1.60
2019-05-14T07:22:08.919Z,1.40
2019-05-14T07:24:40.689Z,1.20
2019-05-14T07:27:09.415Z,1.37
2019-05-14T07:29:38.940Z,1.25
2019-05-14T07:32:09.095Z,1.70
2019-05-14T07:34:39.016Z,1.47
2019-05-14T07:37:09.389Z,1.80
2019-05-14T07:39:38.531Z,1.55
2019-05-14T07:42:09.760Z,1.70
2019-05-14T07:44:39.074Z,2.10
2019-05-14T07:47:08.375Z,1.62
2019-05-14T07:49:38.576Z,2.00
2019-05-14T07:52:09.403Z,1.75
2019-05-14T07:54:38.908Z,1.32
2019-05-14T07:57:08.784Z,1.70
2019-05-14T07:59:38.060Z,1.70
2019-05-14T08:02:09.156Z,1.50
2019-05-14T08:04:38.095Z,1.27
2019-05-14T08:07:08.927Z,1.32
2019-05-14T08:09:38.987Z,1.67
2019-05-14T08:12:09.323Z,1.67
2019-05-14T08:14:45.934Z,2.17
2019-05-14T08:17:08.796Z,1.30
2019-05-14T08:19:38.539Z,1.47
2019-05-14T08:22:09.487Z,1.47
2019-05-14T08:24:38.526Z,1.37
2019-05-14T08:27:08.538Z,1.20
2019-05-14T08:29:39.943Z,1.40
2019-05-14T08:32:08.805Z,1.05
2019-05-14T08:34:39.016Z,1.10
2019-05-14T08:37:08.221Z,0.88
2019-05-14T08:39:39.191Z,0.93
2019-05-14T08:42:08.557Z,1.27
2019-05-14T08:44:38.944Z,0.82
2019-05-14T08:47:09.492Z,0.88
2019-05-14T08:49:45.915Z,1.17
2019-05-14T08:52:09.032Z,0.93
2019-05-14T08:54:39.066Z,1.32
2019-05-14T08:57:09.839Z,1.15
2019-05-14T08:59:39.619Z,1.00
2019-05-14T09:02:10.648Z,0.80
2019-05-14T09:04:42.745Z,1.05
2019-05-14T09:07:09.526Z,0.90
2019-05-14T09:09:38.970Z,0.90
2019-05-14T09:12:12.490Z,0.72
2019-05-14T09:14:38.852Z,0.78
2019-05-14T09:17:09.860Z,1.10
2019-05-14T09:19:39.472Z,0.80
2019-05-14T09:22:09.575Z,0.70
2019-05-14T09:24:39.016Z,1.00
2019-05-14T09:27:08.480Z,0.90
2019-05-14T09:29:39.477Z,1.02
2019-05-14T09:32:09.567Z,1.17
2019-05-14T09:34:39.369Z,0.80
2019-05-14T09:37:08.922Z,1.20
2019-05-14T09:39:38.607Z,0.85
2019-05-14T09:42:08.168Z,1.00
2019-05-14T09:44:38.726Z,0.82
2019-05-14T09:47:08.579Z,1.02
2019-05-14T09:49:38.931Z,1.70
2019-05-14T09:52:09.083Z,1.57
2019-05-14T09:54:41.591Z,1.92
2019-05-14T09:57:08.525Z,2.60
2019-05-14T09:59:38.434Z,2.05
2019-05-14T10:02:09.215Z,2.05
2019-05-14T10:04:39.155Z,1.90
2019-05-14T10:07:08.858Z,1.77
2019-05-14T10:09:39.065Z,2.02
2019-05-14T10:12:08.925Z,1.47
2019-05-14T10:14:39.366Z,2.08
2019-05-14T10:17:08.140Z,1.57
2019-05-14T10:19:39.253Z,2.00
2019-05-14T10:22:08.334Z,1.82
2019-05-14T10:24:38.681Z,1.92
2019-05-14T10:27:08.974Z,1.25
2019-05-14T10:29:39.438Z,1.60
2019-05-14T10:32:08.764Z,1.75
2019-05-14T10:34:37.495Z,1.45
2019-05-14T10:37:08.413Z,1.57
2019-05-14T10:39:38.857Z,1.75
2019-05-14T10:42:08.875Z,1.95
2019-05-14T10:44:38.687Z,1.47
2019-05-14T10:47:09.370Z,1.50
2019-05-14T10:49:38.681Z,1.55
2019-05-14T10:52:08.221Z,2.33
2019-05-14T10:54:40.293Z,2.05
2019-05-14T10:57:09.653Z,1.95
2019-05-14T10:59:37.723Z,3.85
2019-05-14T11:02:11.656Z,3.00
2019-05-14T11:04:38.783Z,3.02
2019-05-14T11:07:06.905Z,3.17
2019-05-14T11:09:38.053Z,3.00
2019-05-14T11:12:08.897Z,3.15
2019-05-14T11:14:38.699Z,3.20
2019-05-14T11:17:11.787Z,3.50
2019-05-14T11:19:38.965Z,3.83
2019-05-14T11:22:08.478Z,2.85
2019-05-14T11:24:38.535Z,4.75
2019-05-14T11:27:07.981Z,3.85
2019-05-14T11:29:38.744Z,3.47
2019-05-14T11:32:09.738Z,4.50
2019-05-14T11:34:39.075Z,3.90
2019-05-14T11:37:08.554Z,4.00
2019-05-14T11:39:37.969Z,4.10
2019-05-14T11:42:08.555Z,4.00
2019-05-14T11:44:38.332Z,3.62
2019-05-14T11:47:09.066Z,4.12
2019-05-14T11:49:37.627Z,3.70
2019-05-14T11:52:11.009Z,4.00
2019-05-14T11:54:40.893Z,3.40
2019-05-14T11:57:11.699Z,3.35
2019-05-14T11:59:39.111Z,3.55
2019-05-14T12:02:09.615Z,4.00
2019-05-14T12:04:39.171Z,3.55
2019-05-14T12:07:09.677Z,2.90
2019-05-14T12:09:39.051Z,3.40
2019-05-14T12:12:12.175Z,3.10
2019-05-14T12:14:38.301Z,3.02
2019-05-14T12:17:09.380Z,3.17
2019-05-14T12:19:39.302Z,3.20
2019-05-14T12:22:11.519Z,2.80
2019-05-14T12:24:38.796Z,3.33
2019-05-14T12:27:08.868Z,2.77
2019-05-14T12:29:39.754Z,2.98
2019-05-14T12:32:12.645Z,3.00
2019-05-14T12:34:38.888Z,2.95
2019-05-14T12:37:09.108Z,3.12
2019-05-14T12:39:37.924Z,2.60
2019-05-14T12:42:10.127Z,3.37
2019-05-14T12:44:40.503Z,2.95
2019-05-14T12:47:09.468Z,2.62
2019-05-14T12:49:38.703Z,2.70
2019-05-14T12:52:19.055Z,3.00
2019-05-14T12:54:38.875Z,2.52
2019-05-14T12:57:07.765Z,2.52
2019-05-14T12:59:38.136Z,2.92
2019-05-14T13:02:09.661Z,2.45
2019-05-14T13:04:37.851Z,2.40
2019-05-14T13:07:08.964Z,2.72
2019-05-14T13:09:38.539Z,2.72
2019-05-14T13:12:11.260Z,2.67
2019-05-14T13:14:39.497Z,2.15
2019-05-14T13:17:09.274Z,2.37
2019-05-14T13:19:38.116Z,2.70
2019-05-14T13:22:13.593Z,2.20
2019-05-14T13:24:39.359Z,2.65
2019-05-14T13:27:09.454Z,3.50
2019-05-14T13:29:37.963Z,3.80
2019-05-14T13:32:12.043Z,3.65
2019-05-14T13:34:39.395Z,3.47
2019-05-14T13:37:07.243Z,3.25
2019-05-14T13:39:35.806Z,3.25
2019-05-14T13:42:04.836Z,3.85
2019-05-14T13:44:34.036Z,4.30
2019-05-14T13:47:02.617Z,4.12
2019-05-14T13:49:31.318Z,4.60
2019-05-14T13:51:59.956Z,4.25
2019-05-14T13:54:31.803Z,4.00
2019-05-14T13:56:59.070Z,4.35
2019-05-14T13:59:27.699Z,4.30
2019-05-14T14:01:58.854Z,3.92
2019-05-14T14:04:26.572Z,4.67
2019-05-14T14:06:55.231Z,4.00
2019-05-14T14:09:23.892Z,4.60
2019-05-14T14:11:52.806Z,4.33
2019-05-14T14:14:21.756Z,4.50
2019-05-14T14:16:50.396Z,4.30
2019-05-14T14:19:19.258Z,3.72
2019-05-14T14:21:49.483Z,4.97
2019-05-14T14:24:19.742Z,4.67
2019-05-14T14:26:48.989Z,3.90
2019-05-14T14:29:18.799Z,4.08
2019-05-14T14:31:48.563Z,3.75
2019-05-14T14:34:18.150Z,3.37
2019-05-14T14:36:49.987Z,3.92
2019-05-14T14:39:19.132Z,4.28
2019-05-14T14:41:48.886Z,3.95
2019-05-14T14:44:19.103Z,3.77
2019-05-14T14:46:48.446Z,3.40
2019-05-14T14:49:19.210Z,3.50
2019-05-14T14:51:49.219Z,3.87
2019-05-14T14:54:18.001Z,3.75
2019-05-14T14:56:48.717Z,3.95
2019-05-14T14:59:18.927Z,3.45
2019-05-14T15:01:50.222Z,3.17
2019-05-14T15:04:19.324Z,3.20
2019-05-14T15:06:50.787Z,3.65
2019-05-14T15:09:18.854Z,3.77
2019-05-14T15:11:48.973Z,3.25
2019-05-14T15:14:20.183Z,3.45
2019-05-14T15:16:49.739Z,3.58
2019-05-14T15:19:19.316Z,3.08
2019-05-14T15:21:48.882Z,3.10
2019-05-14T15:24:19.578Z,2.70
2019-05-14T15:26:48.478Z,3.08
2019-05-14T15:29:18.693Z,3.12
2019-05-14T15:31:48.544Z,3.80
2019-05-14T15:34:18.928Z,3.02
2019-05-14T15:36:49.200Z,3.27
2019-05-14T15:39:19.036Z,2.47
2019-05-14T15:41:49.890Z,3.20
2019-05-14T15:44:19.631Z,3.33
2019-05-14T15:46:49.276Z,2.35
2019-05-14T15:49:19.134Z,2.87
2019-05-14T15:51:47.954Z,2.92
2019-05-14T15:54:35.965Z,2.87
2019-05-14T15:56:49.198Z,2.70
2019-05-14T15:59:19.112Z,3.20
2019-05-14T16:01:47.394Z,2.85
2019-05-14T16:04:16.119Z,2.75
2019-05-14T16:06:44.764Z,3.00
2019-05-14T16:09:13.998Z,2.95
2019-05-14T16:11:42.645Z,2.90
2019-05-14T16:14:11.233Z,2.62
2019-05-14T16:16:39.942Z,2.80
2019-05-14T16:19:08.591Z,2.60
2019-05-14T16:21:38.515Z,2.83
2019-05-14T16:24:08.345Z,2.67
2019-05-14T16:26:37.170Z,2.65
2019-05-14T16:29:08.707Z,2.42
2019-05-14T16:31:41.900Z,2.83
2019-05-14T16:34:09.759Z,3.00
2019-05-14T16:36:41.308Z,2.35
2019-05-14T16:39:09.637Z,2.50
2019-05-14T16:41:38.966Z,2.52
2019-05-14T16:44:09.053Z,2.37
2019-05-14T16:46:38.470Z,2.80
2019-05-14T16:49:08.967Z,2.40
2019-05-14T16:51:37.640Z,2.45
2019-05-14T16:54:06.266Z,2.33
2019-05-14T16:56:34.838Z,2.40
2019-05-14T16:59:03.463Z,2.58
2019-05-14T17:01:33.653Z,2.40
2019-05-14T17:04:02.562Z,2.15
2019-05-14T17:06:34.562Z,2.80
2019-05-14T17:09:01.491Z,2.10
2019-05-14T17:11:30.135Z,1.90
2019-05-14T17:13:59.053Z,2.60
2019-05-14T17:16:28.999Z,2.50
2019-05-14T17:18:59.097Z,2.27
2019-05-14T17:21:27.985Z,2.10
2019-05-14T17:23:58.060Z,2.02
2019-05-14T17:26:28.744Z,2.40
2019-05-14T17:28:59.698Z,2.05
2019-05-14T17:31:30.905Z,1.90
2019-05-14T17:33:58.528Z,2.00
2019-05-14T17:36:28.270Z,2.20
2019-05-14T17:38:58.595Z,2.35
2019-05-14T17:41:27.347Z,2.22
2019-05-14T17:43:58.441Z,2.10
2019-05-14T17:46:26.262Z,1.98
2019-05-14T17:48:54.807Z,1.82
2019-05-14T17:51:23.422Z,2.60
2019-05-14T17:53:51.975Z,2.27
2019-05-14T17:56:22.895Z,1.98
2019-05-14T17:58:51.682Z,1.87
2019-05-14T18:01:20.885Z,2.00
2019-05-14T18:03:49.531Z,2.02
2019-05-14T18:06:18.884Z,2.08
2019-05-14T18:08:48.007Z,1.95
2019-05-14T18:11:19.058Z,2.05
2019-05-14T18:13:48.425Z,1.65
2019-05-14T18:16:19.249Z,1.85
2019-05-14T18:18:49.353Z,2.25
2019-05-14T18:21:18.462Z,2.17
2019-05-14T18:23:49.163Z,2.02
2019-05-14T18:26:18.882Z,2.10
2019-05-14T18:28:48.074Z,1.77
2019-05-14T18:31:19.941Z,2.05
2019-05-14T18:33:49.159Z,2.20
2019-05-14T18:36:19.123Z,2.10
2019-05-14T18:38:49.325Z,2.22
2019-05-14T18:41:18.919Z,2.02
2019-05-14T18:43:48.315Z,1.80
2019-05-14T18:46:19.241Z,1.60
2019-05-14T18:48:48.707Z,1.95
2019-05-14T18:51:19.704Z,1.85
2019-05-14T18:53:49.080Z,1.40
2019-05-14T18:56:23.950Z,2.22
2019-05-14T18:58:48.986Z,1.62
2019-05-14T19:01:19.599Z,1.85
2019-05-14T19:03:49.461Z,1.52
2019-05-14T19:06:18.931Z,1.50
2019-05-14T19:08:48.354Z,1.72
2019-05-14T19:11:17.174Z,1.72
2019-05-14T19:13:48.140Z,1.50
2019-05-14T19:16:16.283Z,1.98
2019-05-14T19:18:44.914Z,1.77
2019-05-14T19:21:13.495Z,1.30
2019-05-14T19:23:45.143Z,1.65
2019-05-14T19:26:12.685Z,1.37
2019-05-14T19:28:41.263Z,1.70
2019-05-14T19:31:09.822Z,1.45
2019-05-14T19:33:38.410Z,1.40
2019-05-14T19:36:08.891Z,1.40
2019-05-14T19:38:38.945Z,1.55
2019-05-14T19:41:08.597Z,1.42
2019-05-14T19:43:37.471Z,1.57
2019-05-14T19:46:08.529Z,1.70
2019-05-14T19:48:36.410Z,1.57
2019-05-14T19:51:08.042Z,1.67
2019-05-14T19:53:35.958Z,1.35
2019-05-14T19:56:04.536Z,1.72
2019-05-14T19:58:33.427Z,1.52
2019-05-14T20:01:02.068Z,1.37
2019-05-14T20:03:30.766Z,1.60
2019-05-14T20:05:59.345Z,1.62
2019-05-14T20:08:29.522Z,1.72
2019-05-14T20:10:59.227Z,1.57
2019-05-14T20:13:28.672Z,1.57
2019-05-14T20:15:59.051Z,1.32
2019-05-14T20:18:28.927Z,1.35
2019-05-14T20:20:59.169Z,1.57
2019-05-14T20:23:29.107Z,1.57
2019-05-14T20:25:58.678Z,1.45
2019-05-14T20:28:27.343Z,1.67
2019-05-14T20:30:58.704Z,1.40
2019-05-14T20:33:26.412Z,1.55
2019-05-14T20:35:54.985Z,1.70
2019-05-14T20:38:23.539Z,1.50
2019-05-14T20:40:52.111Z,1.30
2019-05-14T20:43:20.714Z,1.52
2019-05-14T20:45:49.287Z,1.45
2019-05-14T20:48:18.856Z,1.35
2019-05-14T20:50:47.958Z,1.42
2019-05-14T20:53:18.564Z,1.40
2019-05-14T20:55:46.884Z,1.40
2019-05-14T20:58:15.609Z,1.52
2019-05-14T21:00:44.288Z,1.50
2019-05-14T21:03:12.859Z,1.50
2019-05-14T21:05:42.279Z,1.45
2019-05-14T21:08:13.442Z,1.30
2019-05-14T21:10:41.867Z,1.25
2019-05-14T21:13:10.494Z,1.62
2019-05-14T21:15:39.345Z,1.37
2019-05-14T21:18:08.464Z,1.45
2019-05-14T21:20:39.320Z,1.60
2019-05-14T21:23:08.976Z,1.62
2019-05-14T21:25:38.692Z,1.20
2019-05-14T21:28:09.335Z,1.30
2019-05-14T21:30:38.767Z,1.37
2019-05-14T21:33:08.392Z,1.22
2019-05-14T21:35:39.000Z,1.40
2019-05-14T21:38:09.193Z,1.50
2019-05-14T21:40:39.003Z,1.27
2019-05-14T21:43:11.077Z,1.50
2019-05-14T21:45:38.552Z,1.17
2019-05-14T21:48:08.650Z,1.20
2019-05-14T21:50:38.773Z,1.60
2019-05-14T21:53:08.522Z,1.17
2019-05-14T21:55:38.873Z,1.20
2019-05-14T21:58:09.079Z,1.20
2019-05-14T22:00:42.116Z,1.00
2019-05-14T22:03:10.634Z,1.27
2019-05-14T22:05:39.563Z,1.15
2019-05-14T22:08:08.807Z,1.15
2019-05-14T22:10:39.752Z,1.20
2019-05-14T22:13:07.971Z,1.22
2019-05-14T22:15:38.863Z,1.30
2019-05-14T22:18:14.952Z,1.47
2019-05-14T22:20:38.581Z,1.40
2019-05-14T22:23:08.894Z,1.47
2019-05-14T22:25:39.514Z,1.20
2019-05-14T22:28:15.096Z,1.30
2019-05-14T22:30:39.117Z,1.20
2019-05-14T22:33:08.496Z,1.00
2019-05-14T22:35:39.739Z,0.98
2019-05-14T22:38:08.119Z,1.35
2019-05-14T22:40:39.015Z,1.10
2019-05-14T22:43:09.164Z,1.10
2019-05-14T22:45:37.571Z,1.20
2019-05-14T22:48:06.128Z,1.07
2019-05-14T22:50:35.001Z,1.40
2019-05-14T22:53:03.608Z,1.20
2019-05-14T22:55:32.250Z,1.27
2019-05-14T22:58:00.816Z,1.25
2019-05-14T23:00:29.388Z,1.00
2019-05-14T23:02:57.940Z,1.10
2019-05-14T23:05:28.753Z,1.25
2019-05-14T23:07:58.285Z,1.20
2019-05-14T23:10:27.137Z,1.20
2019-05-14T23:12:58.382Z,1.17
2019-05-14T23:15:26.323Z,1.30
2019-05-14T23:17:54.888Z,1.27
2019-05-14T23:20:23.468Z,1.40
2019-05-14T23:22:52.019Z,1.15
2019-05-14T23:25:20.662Z,0.90
2019-05-14T23:27:49.227Z,1.42
2019-05-14T23:30:21.803Z,1.20
2019-05-14T23:32:50.351Z,1.15
2019-05-14T23:35:19.227Z,1.15
2019-05-14T23:37:48.934Z,1.02
2019-05-14T23:40:17.749Z,0.95
2019-05-14T23:42:48.981Z,1.05
2019-05-14T23:45:19.016Z,0.90
2019-05-14T23:47:49.355Z,1.00
2019-05-14T23:50:18.122Z,0.90
2019-05-14T23:52:49.207Z,1.05
2019-05-14T23:55:18.141Z,1.05
2019-05-14T23:57:48.147Z,0.82
